Time;durP1;ratioP1;P1;durP2;ratioP2;P2;SDS_P1;SDS_P2;PMS_P1;PMS_P2;Temp;Humidity;BMP_temperature;BMP_pressure;BME280_temperature;BME280_humidity;BME280_pressure;Samples;Min_cycle;Max_cycle;Signal;HPM_P1;HPM_P2
2023/12/30 00:01:22;;;;;;;1.13;1.03;;;;;;;-143.84;57.83;45129.03;5068049;28;20935;-60
2023/12/30 00:03:49;;;;;;;2.10;1.10;;;;;;;-143.84;57.94;45108.09;5068118;28;20543;-61
2023/12/30 00:06:18;;;;;;;0.90;0.60;;;;;;;-143.84;57.91;45119.53;5068073;28;20432;-61
2023/12/30 00:08:45;;;;;;;0.80;0.50;;;;;;;-143.84;57.99;45125.22;5067916;28;20481;-61
2023/12/30 00:11:15;;;;;;;2.40;1.20;;;;;;;-143.84;57.93;45115.72;5067947;28;20497;-61
2023/12/30 00:13:42;;;;;;;7.83;1.47;;;;;;;-143.84;58.07;45121.44;5068140;28;20810;-61
2023/12/30 00:16:10;;;;;;;1.27;0.90;;;;;;;-143.84;58.09;45108.09;5068078;28;20447;-61
2023/12/30 00:18:38;;;;;;;2.50;1.00;;;;;;;-143.84;58.36;45125.22;5070940;28;21090;-61
2023/12/30 00:21:05;;;;;;;0.83;0.67;;;;;;;-143.84;58.39;45136.66;5071522;28;20544;-61
2023/12/30 00:23:33;;;;;;;2.17;1.90;;;;;;;-143.84;58.17;45094.78;5071715;28;20449;-60
2023/12/30 00:26:00;;;;;;;0.80;0.63;;;;;;;-143.84;58.23;45127.13;5071655;28;20449;-60
2023/12/30 00:28:28;;;;;;;0.80;0.67;;;;;;;-143.84;58.17;45110.00;5071365;28;20501;-61
2023/12/30 00:30:55;;;;;;;3.10;1.00;;;;;;;-143.84;58.13;45129.03;5071535;28;20456;-60
2023/12/30 00:33:22;;;;;;;1.33;1.23;;;;;;;-143.84;58.27;45115.72;5071773;28;20437;-61
2023/12/30 00:35:49;;;;;;;0.90;0.70;;;;;;;-143.84;58.41;45129.03;5071391;28;20502;-61
2023/12/30 00:38:17;;;;;;;0.90;0.70;;;;;;;-143.84;58.57;45121.44;5071613;28;20946;-61
2023/12/30 00:40:44;;;;;;;1.00;0.90;;;;;;;-143.84;58.71;45125.22;5071508;28;20989;-61
2023/12/30 00:43:11;;;;;;;0.93;0.70;;;;;;;-143.84;58.93;45125.22;5071388;28;20853;-60
2023/12/30 00:45:39;;;;;;;0.90;0.77;;;;;;;-143.84;58.96;45121.44;5071215;28;20436;-61
2023/12/30 00:48:07;;;;;;;2.37;0.90;;;;;;;-143.84;59.21;45117.63;5071302;28;20452;-61
2023/12/30 00:50:34;;;;;;;0.90;0.70;;;;;;;-143.84;59.40;45106.19;5071226;28;21273;-61
2023/12/30 00:53:01;;;;;;;0.80;0.60;;;;;;;-143.84;59.53;45117.63;5071427;28;21380;-60
2023/12/30 00:55:28;;;;;;;0.80;0.50;;;;;;;-143.84;59.75;45123.34;5071120;28;20433;-60
2023/12/30 00:57:55;;;;;;;0.80;0.47;;;;;;;-143.84;59.98;45102.38;5071532;28;20453;-61
2023/12/30 01:00:22;;;;;;;1.57;1.47;;;;;;;-143.84;60.19;45117.63;5071165;28;21317;-61
2023/12/30 01:02:51;;;;;;;0.80;0.50;;;;;;;-143.84;60.28;45123.34;5070946;28;20445;-60
2023/12/30 01:05:18;;;;;;;0.80;0.63;;;;;;;-143.84;60.29;45113.81;5070749;28;20980;-61
2023/12/30 01:07:45;;;;;;;1.67;0.80;;;;;;;-143.84;60.50;45129.03;5070693;28;20449;-60
2023/12/30 01:10:12;;;;;;;0.80;0.50;;;;;;;-143.84;60.29;45089.06;5070249;28;20475;-61
2023/12/30 01:12:39;;;;;;;1.03;0.93;;;;;;;-143.84;60.18;45106.19;5070485;28;20437;-61
2023/12/30 01:15:08;;;;;;;0.80;0.60;;;;;;;-143.84;60.18;45129.03;5070543;28;21062;-61
2023/12/30 01:17:35;;;;;;;1.80;0.77;;;;;;;-143.84;59.89;45100.47;5070395;28;20550;-61
2023/12/30 01:20:04;;;;;;;1.00;0.90;;;;;;;-143.84;59.73;45153.81;5070837;28;20860;-60
2023/12/30 01:22:31;;;;;;;1.87;1.00;;;;;;;-143.84;59.47;45138.56;5070635;28;20565;-61
2023/12/30 01:24:58;;;;;;;0.80;0.50;;;;;;;-143.84;59.26;45134.75;5070616;28;20445;-61
2023/12/30 01:27:25;;;;;;;0.80;0.53;;;;;;;-143.84;59.55;45134.75;5070296;28;20918;-61
2023/12/30 01:29:52;;;;;;;0.80;0.50;;;;;;;-143.84;59.36;45134.75;5070355;28;20472;-60
2023/12/30 01:32:20;;;;;;;0.80;0.50;;;;;;;-143.84;59.21;45129.03;5070366;28;20441;-61
2023/12/30 01:34:47;;;;;;;0.80;0.50;;;;;;;-143.84;58.88;45111.91;5070495;28;20502;-60
2023/12/30 01:37:15;;;;;;;0.80;0.60;;;;;;;-143.84;59.07;45117.63;5070435;28;20866;-61
2023/12/30 01:39:42;;;;;;;1.03;0.80;;;;;;;-143.84;59.25;45123.34;5070239;28;20486;-61
2023/12/30 01:42:09;;;;;;;1.43;0.80;;;;;;;-143.84;59.70;45136.66;5070192;28;20494;-61
2023/12/30 01:44:37;;;;;;;0.90;0.60;;;;;;;-143.84;60.00;45127.13;5070046;28;20942;-61
2023/12/30 01:47:04;;;;;;;1.20;0.97;;;;;;;-143.84;60.70;45121.44;5069942;28;20466;-61
2023/12/30 01:49:32;;;;;;;0.80;0.50;;;;;;;-143.84;60.38;45123.34;5069802;28;20880;-61
2023/12/30 01:51:59;;;;;;;0.90;0.60;;;;;;;-143.84;60.51;45130.94;5070072;28;20444;-61
2023/12/30 01:54:28;;;;;;;0.80;0.50;;;;;;;-143.84;60.87;45142.38;5070031;28;20490;-61
2023/12/30 01:56:55;;;;;;;0.87;0.63;;;;;;;-143.84;60.84;45125.22;5069937;28;20506;-60
2023/12/30 01:59:24;;;;;;;0.80;0.50;;;;;;;-143.84;60.89;45138.56;5069905;28;20510;-61
2023/12/30 02:01:51;;;;;;;1.67;0.90;;;;;;;-143.84;61.12;45096.66;5069453;28;20869;-61
2023/12/30 02:04:18;;;;;;;1.30;0.80;;;;;;;-143.84;61.38;45113.81;5069595;28;20528;-61
2023/12/30 02:06:46;;;;;;;1.00;0.87;;;;;;;-143.84;61.62;45132.84;5069799;28;20498;-61
2023/12/30 02:09:13;;;;;;;0.97;0.60;;;;;;;-143.84;61.80;45121.44;5069666;28;20958;-61
2023/12/30 02:11:42;;;;;;;1.37;0.77;;;;;;;-143.84;61.67;45136.66;5069754;28;20520;-61
2023/12/30 02:14:23;;;;;;;0.80;0.50;;;;;;;-143.84;61.64;45130.94;5069871;28;20502;-61
2023/12/30 02:16:50;;;;;;;0.80;0.50;;;;;;;-143.84;61.69;45136.66;5069103;28;20540;-61
2023/12/30 02:19:17;;;;;;;0.90;0.73;;;;;;;-143.84;61.58;45121.44;5069848;28;20498;-61
2023/12/30 02:21:45;;;;;;;1.53;0.90;;;;;;;-143.84;61.21;45119.53;5069382;28;20436;-61
2023/12/30 02:24:13;;;;;;;1.20;1.00;;;;;;;-143.84;61.18;45157.59;5069510;28;20444;-61
2023/12/30 02:26:40;;;;;;;0.80;0.50;;;;;;;-143.84;61.40;45127.13;5069470;28;20498;-61
2023/12/30 02:29:08;;;;;;;1.30;0.80;;;;;;;-143.84;61.08;45117.63;5069244;28;21034;-61
2023/12/30 02:31:37;;;;;;;0.80;0.60;;;;;;;-143.84;60.88;45117.63;5069059;28;20440;-60
2023/12/30 02:34:04;;;;;;;0.90;0.70;;;;;;;-143.84;60.55;45121.44;5069425;28;20452;-61
2023/12/30 02:36:31;;;;;;;1.30;1.20;;;;;;;-143.84;60.98;45140.47;5069222;28;20848;-61
2023/12/30 02:38:58;;;;;;;0.90;0.73;;;;;;;-143.84;61.05;45108.09;5068993;28;20456;-61
2023/12/30 02:41:27;;;;;;;1.33;1.23;;;;;;;-143.84;60.87;45115.72;5068681;28;20449;-61
2023/12/30 02:43:58;;;;;;;0.90;0.60;;;;;;;-143.84;60.71;45115.72;5068831;28;20464;-61
2023/12/30 02:46:25;;;;;;;1.07;0.97;;;;;;;-143.84;61.02;45117.63;5069309;28;20436;-61
2023/12/30 02:48:52;;;;;;;0.80;0.40;;;;;;;-143.84;60.67;45113.81;5069431;28;20498;-61
2023/12/30 02:51:20;;;;;;;1.57;1.47;;;;;;;-143.84;60.81;45104.28;5069010;28;20484;-60
2023/12/30 02:53:47;;;;;;;1.53;1.07;;;;;;;-143.84;61.24;45153.81;5069181;28;20436;-61
2023/12/30 02:56:21;;;;;;;2.33;0.90;;;;;;;-143.84;61.20;45184.25;5068810;28;20506;-61
2023/12/30 02:58:53;;;;;;;1.00;0.87;;;;;;;-143.84;61.32;45121.44;5068593;28;20498;-61
2023/12/30 03:01:20;;;;;;;0.90;0.77;;;;;;;-143.84;61.40;45129.03;5068954;28;20999;-61
2023/12/30 03:03:47;;;;;;;1.33;0.67;;;;;;;-143.84;61.32;45123.34;5068714;28;20448;-61
2023/12/30 03:06:15;;;;;;;1.40;0.73;;;;;;;-143.84;61.62;45132.84;5068611;28;20441;-60
2023/12/30 03:08:42;;;;;;;1.07;0.83;;;;;;;-143.84;61.66;45142.38;5068518;28;20468;-61
2023/12/30 03:11:10;;;;;;;1.03;0.83;;;;;;;-143.84;62.00;45130.94;5068718;28;20473;-61
2023/12/30 03:13:37;;;;;;;1.73;0.70;;;;;;;-143.84;61.90;45117.63;5068522;28;20436;-61
2023/12/30 03:16:06;;;;;;;0.83;0.57;;;;;;;-143.84;62.40;45127.13;5068570;28;20433;-61
2023/12/30 03:18:34;;;;;;;1.40;0.80;;;;;;;-143.84;62.40;45144.28;5068396;28;20614;-61
2023/12/30 03:21:01;;;;;;;0.83;0.57;;;;;;;-143.84;62.37;45129.03;5068558;28;20787;-61
2023/12/30 03:23:28;;;;;;;1.47;1.37;;;;;;;-143.84;62.39;45127.13;5068474;28;20449;-61
2023/12/30 03:25:55;;;;;;;9.10;2.90;;;;;;;-143.84;62.64;45113.81;5068347;28;20491;-61
2023/12/30 03:28:23;;;;;;;1.10;1.00;;;;;;;-143.84;62.68;45140.47;5068446;28;20490;-61
2023/12/30 03:30:50;;;;;;;0.80;0.53;;;;;;;-143.84;62.69;45161.41;5068159;28;20476;-61
2023/12/30 03:33:19;;;;;;;0.80;0.50;;;;;;;-143.84;62.44;45123.34;5068533;28;20893;-61
2023/12/30 03:35:46;;;;;;;0.90;0.80;;;;;;;-143.84;62.60;45108.09;5068569;28;20444;-61
2023/12/30 03:38:13;;;;;;;1.10;1.00;;;;;;;-143.84;62.80;45132.84;5068375;28;20441;-61
2023/12/30 03:40:40;;;;;;;0.80;0.57;;;;;;;-143.84;62.47;45102.38;5068498;28;21230;-61
2023/12/30 03:43:07;;;;;;;1.00;0.90;;;;;;;-143.84;62.60;45129.03;5068485;28;20432;-61
2023/12/30 03:45:34;;;;;;;0.97;0.87;;;;;;;-143.84;62.74;45121.44;5068689;28;21250;-61
2023/12/30 03:48:02;;;;;;;1.00;0.70;;;;;;;-143.84;63.06;45129.03;5068676;28;20552;-61
2023/12/30 03:50:30;;;;;;;1.63;0.97;;;;;;;-143.84;63.17;45119.53;5068502;28;20484;-61
2023/12/30 03:52:57;;;;;;;1.00;0.80;;;;;;;-143.84;63.28;45121.44;5072266;28;20506;-61
2023/12/30 03:55:24;;;;;;;1.27;0.57;;;;;;;-143.84;63.51;45100.47;5072588;28;20445;-61
2023/12/30 03:57:53;;;;;;;0.80;0.50;;;;;;;-143.84;63.56;45148.09;5072044;28;20445;-61
2023/12/30 04:00:21;;;;;;;0.80;0.50;;;;;;;-143.84;63.77;45117.63;5072015;28;20551;-61
2023/12/30 04:02:48;;;;;;;0.90;0.70;;;;;;;-143.84;64.08;45125.22;5071976;28;20443;-61
2023/12/30 04:05:15;;;;;;;0.90;0.60;;;;;;;-143.84;63.91;45150.00;5072284;28;20513;-61
2023/12/30 04:07:43;;;;;;;0.80;0.50;;;;;;;-143.84;63.80;45125.22;5072380;28;20440;-61
2023/12/30 04:10:12;;;;;;;2.33;1.23;;;;;;;-143.84;63.83;45094.78;5072066;28;20526;-61
2023/12/30 04:12:39;;;;;;;0.90;0.70;;;;;;;-143.84;64.13;45110.00;5071869;28;20537;-61
2023/12/30 04:15:08;;;;;;;0.93;0.67;;;;;;;-143.84;64.47;45130.94;5071795;28;20574;-61
2023/12/30 04:17:35;;;;;;;0.90;0.60;;;;;;;-143.84;63.95;45127.13;5071562;28;20488;-61
2023/12/30 04:20:02;;;;;;;1.00;0.83;;;;;;;-143.84;63.85;45130.94;5071913;28;20969;-61
2023/12/30 04:22:29;;;;;;;1.00;0.70;;;;;;;-143.84;63.77;45117.63;5071854;28;20444;-61
2023/12/30 04:24:58;;;;;;;0.83;0.63;;;;;;;-143.84;63.82;45121.44;5071834;28;20433;-61
2023/12/30 04:27:25;;;;;;;1.03;0.93;;;;;;;-143.84;63.96;45127.13;5071641;28;20965;-61
2023/12/30 04:29:52;;;;;;;0.80;0.60;;;;;;;-143.84;63.85;45113.81;5071403;28;20572;-60
2023/12/30 04:32:20;;;;;;;0.80;0.50;;;;;;;-143.84;63.84;45129.03;5071713;28;20833;-61
2023/12/30 04:34:47;;;;;;;1.30;0.90;;;;;;;-143.84;63.86;45144.28;5071683;28;20478;-61
2023/12/30 04:37:15;;;;;;;0.90;0.63;;;;;;;-143.84;63.51;45115.72;5071354;28;20494;-60
2023/12/30 04:39:42;;;;;;;1.00;0.90;;;;;;;-143.84;63.61;45121.44;5071308;28;20444;-61
2023/12/30 04:42:10;;;;;;;0.90;0.70;;;;;;;-143.84;63.19;45106.19;5067262;28;20509;-59
2023/12/30 04:44:38;;;;;;;0.90;0.80;;;;;;;-143.84;63.45;45129.03;5071840;28;20445;-59
2023/12/30 04:47:06;;;;;;;0.90;0.70;;;;;;;-143.84;63.18;45136.66;5071764;28;20486;-58
2023/12/30 04:49:33;;;;;;;0.80;0.50;;;;;;;-143.84;62.87;45115.72;5071966;28;20441;-58
2023/12/30 04:52:00;;;;;;;0.80;0.50;;;;;;;-143.84;63.08;45119.53;5071735;28;20597;-58
2023/12/30 04:54:27;;;;;;;1.10;0.80;;;;;;;-143.84;62.80;45125.22;5071648;28;20433;-58
2023/12/30 04:56:55;;;;;;;0.80;0.53;;;;;;;-143.84;62.34;45134.75;5071811;28;20435;-58
2023/12/30 04:59:23;;;;;;;8.60;1.00;;;;;;;-143.84;62.06;45146.19;5071586;28;20953;-58
2023/12/30 05:01:50;;;;;;;0.80;0.50;;;;;;;-143.84;61.72;45136.66;5071716;28;20476;-58
2023/12/30 05:04:18;;;;;;;0.80;0.50;;;;;;;-143.84;61.30;45121.44;5070344;28;20437;-58
2023/12/30 05:06:45;;;;;;;0.90;0.60;;;;;;;-143.84;61.09;45130.94;5071755;28;20470;-58
2023/12/30 05:09:14;;;;;;;1.47;1.37;;;;;;;-143.84;61.18;45113.81;5062092;28;20515;-58
2023/12/30 05:11:44;;;;;;;0.83;0.57;;;;;;;-143.84;61.17;45140.47;5051502;28;20632;-58
2023/12/30 05:14:12;;;;;;;1.20;1.10;;;;;;;-143.84;61.03;45106.19;5051626;28;20438;-58
2023/12/30 05:16:45;;;;;;;1.20;1.10;;;;;;;-143.84;60.87;45151.91;5051333;28;20847;-59
2023/12/30 05:19:12;;;;;;;1.00;0.70;;;;;;;-143.84;60.35;45134.75;5051527;28;20799;-58
2023/12/30 05:21:39;;;;;;;0.83;0.57;;;;;;;-143.84;60.33;45134.75;5051541;28;20854;-60
2023/12/30 05:24:07;;;;;;;0.80;0.60;;;;;;;-143.84;60.04;45108.09;5051258;28;20850;-60
2023/12/30 05:26:35;;;;;;;0.90;0.60;;;;;;;-143.84;60.01;45127.13;5051411;28;20442;-60
2023/12/30 05:29:02;;;;;;;0.90;0.70;;;;;;;-143.84;59.96;45119.53;5053424;28;20445;-61
2023/12/30 05:31:29;;;;;;;1.10;1.00;;;;;;;-143.84;60.04;45138.56;5071216;28;21198;-58
2023/12/30 05:33:58;;;;;;;1.00;0.90;;;;;;;-143.84;60.16;45127.13;5070918;28;20436;-58
2023/12/30 05:36:25;;;;;;;1.57;0.90;;;;;;;-143.84;59.98;45110.00;5070596;28;20934;-60
2023/12/30 05:38:52;;;;;;;1.00;0.60;;;;;;;-143.84;60.24;45121.44;5070214;28;21398;-60
2023/12/30 05:41:19;;;;;;;0.90;0.70;;;;;;;-143.84;60.15;45113.81;5070654;28;20441;-59
2023/12/30 05:43:46;;;;;;;0.90;0.53;;;;;;;-143.84;60.35;45106.19;5070747;28;20441;-58
2023/12/30 05:46:17;;;;;;;0.80;0.40;;;;;;;-143.84;60.34;45132.84;5070826;28;20460;-58
2023/12/30 05:48:44;;;;;;;1.53;1.00;;;;;;;-143.84;60.49;45127.13;5070710;28;20531;-58
2023/12/30 05:51:12;;;;;;;3.50;0.70;;;;;;;-143.84;60.32;45150.00;5070554;28;20476;-58
2023/12/30 05:53:41;;;;;;;0.83;0.50;;;;;;;-143.84;60.48;45151.91;5070635;28;20448;-58
2023/12/30 05:56:08;;;;;;;2.27;1.13;;;;;;;-143.84;60.45;45113.81;5070793;28;20465;-58
2023/12/30 05:58:37;;;;;;;0.80;0.53;;;;;;;-143.84;60.25;45110.00;5070830;28;20444;-58
2023/12/30 06:01:05;;;;;;;0.90;0.63;;;;;;;-143.84;59.90;45129.03;5070646;28;20927;-58
2023/12/30 06:03:35;;;;;;;1.37;0.73;;;;;;;-143.84;59.84;45102.38;5070567;28;20498;-58
2023/12/30 06:06:03;;;;;;;1.00;0.90;;;;;;;-143.84;59.50;45125.22;5070514;28;20524;-58
2023/12/30 06:08:32;;;;;;;1.00;0.87;;;;;;;-143.84;59.53;45125.22;5070599;28;20659;-58
2023/12/30 06:11:01;;;;;;;0.80;0.50;;;;;;;-143.84;59.18;45117.63;5070422;28;20484;-58
2023/12/30 06:13:28;;;;;;;1.83;1.13;;;;;;;-143.84;58.63;45090.97;5070446;28;20861;-58
2023/12/30 06:15:57;;;;;;;3.27;0.90;;;;;;;-143.84;58.42;45140.47;5070446;28;20790;-58
2023/12/30 06:18:30;;;;;;;0.90;0.70;;;;;;;-143.84;58.14;45111.91;5069857;28;20518;-58
2023/12/30 06:20:58;;;;;;;0.90;0.73;;;;;;;-143.84;58.04;45130.94;5070424;28;21270;-58
2023/12/30 06:23:27;;;;;;;1.00;0.80;;;;;;;-143.84;57.68;45129.03;5070115;28;20451;-59
2023/12/30 06:25:56;;;;;;;1.67;1.53;;;;;;;-143.84;57.59;45117.63;5070348;28;20441;-58
2023/12/30 06:28:24;;;;;;;0.80;0.50;;;;;;;-143.84;57.26;45140.47;5070541;28;20433;-59
2023/12/30 06:30:51;;;;;;;0.90;0.70;;;;;;;-143.84;56.94;45125.22;5069584;28;20609;-58
2023/12/30 06:33:19;;;;;;;0.90;0.70;;;;;;;-143.84;57.02;45123.34;5070488;28;20802;-59
2023/12/30 06:35:46;;;;;;;1.07;0.97;;;;;;;-143.84;56.63;45125.22;5069745;28;20494;-58
2023/12/30 06:38:14;;;;;;;1.10;0.90;;;;;;;-143.84;56.53;45111.91;5069668;28;20810;-59
2023/12/30 06:40:41;;;;;;;3.13;1.97;;;;;;;-143.84;55.85;45129.03;5069705;28;20437;-58
2023/12/30 06:43:10;;;;;;;0.80;0.60;;;;;;;-143.84;55.78;45123.34;5069827;28;20448;-58
2023/12/30 06:45:37;;;;;;;0.90;0.67;;;;;;;-143.84;55.65;45117.63;5069908;28;20875;-58
2023/12/30 06:48:05;;;;;;;3.07;0.80;;;;;;;-143.84;55.33;45104.28;5069652;28;20436;-59
2023/12/30 06:50:33;;;;;;;1.13;1.03;;;;;;;-143.84;54.77;45121.44;5069164;28;20445;-58
2023/12/30 06:53:00;;;;;;;2.50;0.90;;;;;;;-143.84;54.72;45125.22;5069542;28;20949;-58
2023/12/30 06:55:27;;;;;;;0.90;0.57;;;;;;;-143.84;53.69;45111.91;5069309;28;20437;-58
2023/12/30 06:57:54;;;;;;;0.90;0.70;;;;;;;-143.84;53.67;45111.91;5069454;28;20545;-58
2023/12/30 07:00:23;;;;;;;2.07;1.07;;;;;;;-143.84;53.05;45132.84;5069500;28;20440;-58
2023/12/30 07:02:50;;;;;;;1.83;1.63;;;;;;;-143.84;51.92;45129.03;5069396;28;20460;-58
2023/12/30 07:05:17;;;;;;;0.90;0.70;;;;;;;-143.84;51.23;45125.22;5069395;28;20448;-58
2023/12/30 07:07:44;;;;;;;0.90;0.60;;;;;;;-143.84;50.60;45125.22;5069515;28;20437;-58
2023/12/30 07:10:12;;;;;;;0.90;0.63;;;;;;;-143.84;50.22;45125.22;5069437;28;20974;-59
2023/12/30 07:12:39;;;;;;;1.43;1.33;;;;;;;-143.84;50.05;45111.91;5068967;28;20482;-59
2023/12/30 07:15:07;;;;;;;0.80;0.50;;;;;;;-143.84;49.57;45079.53;5069675;28;20440;-59
2023/12/30 07:17:35;;;;;;;2.40;1.13;;;;;;;-143.84;49.66;45119.53;5069076;28;20477;-58
2023/12/30 07:20:03;;;;;;;1.17;1.07;;;;;;;-143.84;49.57;45113.81;5069355;28;20440;-58
2023/12/30 07:22:30;;;;;;;1.37;0.60;;;;;;;-143.84;48.49;45115.72;5069456;28;20452;-59
2023/12/30 07:24:57;;;;;;;0.90;0.60;;;;;;;-143.84;48.42;45098.56;5069110;28;20966;-59
2023/12/30 07:27:24;;;;;;;0.93;0.73;;;;;;;-143.84;47.68;45110.00;5069095;28;20514;-59
2023/12/30 07:29:51;;;;;;;0.80;0.47;;;;;;;-143.84;47.28;45102.38;5069055;28;20444;-59
2023/12/30 07:32:18;;;;;;;1.00;0.90;;;;;;;-143.84;47.22;45089.06;5069060;28;20526;-59
2023/12/30 07:34:47;;;;;;;0.80;0.50;;;;;;;-143.84;47.08;45102.38;5069017;28;20440;-59
2023/12/30 07:37:14;;;;;;;1.33;1.23;;;;;;;-143.84;46.54;45127.13;5069222;28;20441;-59
2023/12/30 07:39:41;;;;;;;0.97;0.63;;;;;;;-143.84;46.77;45102.38;5069171;28;20448;-59
2023/12/30 07:42:08;;;;;;;9.50;0.90;;;;;;;-143.84;45.45;45073.81;5069308;28;20810;-59
2023/12/30 07:44:37;;;;;;;0.90;0.70;;;;;;;-143.84;45.34;45094.78;5069053;28;20946;-59
2023/12/30 07:47:06;;;;;;;1.07;0.83;;;;;;;-143.84;45.13;45075.72;5069077;28;20449;-59
2023/12/30 07:49:33;;;;;;;1.20;0.93;;;;;;;-143.84;44.83;45071.91;5069236;28;20437;-59
2023/12/30 07:52:02;;;;;;;0.93;0.77;;;;;;;-143.84;44.29;45087.16;5068949;28;20506;-59
2023/12/30 07:54:29;;;;;;;0.90;0.70;;;;;;;-143.84;43.95;45090.97;5069022;28;20950;-59
2023/12/30 07:56:56;;;;;;;1.10;0.70;;;;;;;-143.84;44.06;45079.53;5068893;28;20441;-59
2023/12/30 07:59:23;;;;;;;1.50;1.00;;;;;;;-143.84;43.48;45092.88;5069220;28;20441;-59
2023/12/30 08:01:51;;;;;;;0.87;0.60;;;;;;;-143.84;43.08;45092.88;5068838;28;20486;-59
2023/12/30 08:04:18;;;;;;;1.00;0.90;;;;;;;-143.84;42.53;45077.63;5068860;28;20528;-59
2023/12/30 08:06:45;;;;;;;1.33;0.80;;;;;;;-143.84;42.05;45094.78;5068629;28;20433;-59
2023/12/30 08:09:14;;;;;;;2.50;0.90;;;;;;;-143.84;42.28;45106.19;5068919;28;21134;-59
2023/12/30 08:11:41;;;;;;;1.23;1.13;;;;;;;-143.84;41.66;45068.13;5068667;28;20487;-60
2023/12/30 08:14:08;;;;;;;1.17;1.07;;;;;;;-143.84;41.11;45064.31;5068849;28;20445;-59
2023/12/30 08:16:37;;;;;;;1.00;0.70;;;;;;;-143.84;41.01;45066.22;5068653;28;20437;-59
2023/12/30 08:19:04;;;;;;;0.97;0.67;;;;;;;-143.84;41.16;45085.25;5068269;28;20476;-59
2023/12/30 08:21:31;;;;;;;1.10;0.67;;;;;;;-143.84;40.49;45071.91;5068669;28;20498;-59
2023/12/30 08:24:00;;;;;;;0.90;0.60;;;;;;;-143.84;39.80;45079.53;5069059;28;20505;-59
2023/12/30 08:26:29;;;;;;;0.90;0.70;;;;;;;-143.84;39.62;45070.00;5068714;28;20433;-60
2023/12/30 08:28:56;;;;;;;2.53;0.63;;;;;;;-143.84;39.34;45052.88;5068725;28;20445;-60
2023/12/30 08:31:23;;;;;;;1.00;0.83;;;;;;;-143.84;39.05;45077.63;5068596;28;20484;-60
2023/12/30 08:33:52;;;;;;;4.00;1.03;;;;;;;-143.84;39.19;45056.69;5068839;28;20428;-60
2023/12/30 08:36:19;;;;;;;1.30;0.87;;;;;;;-143.84;38.65;45064.31;5068419;28;20554;-60
2023/12/30 08:38:46;;;;;;;0.90;0.77;;;;;;;-143.84;38.52;45060.50;5070991;28;20486;-59
2023/12/30 08:41:14;;;;;;;0.90;0.50;;;;;;;-143.84;38.30;45039.53;5072090;28;20460;-60
2023/12/30 08:43:43;;;;;;;1.73;0.97;;;;;;;-143.84;38.41;45047.16;5072122;28;20502;-59
2023/12/30 08:46:10;;;;;;;1.00;0.90;;;;;;;-143.84;38.00;45066.22;5072157;28;20938;-59
2023/12/30 08:48:38;;;;;;;1.53;1.13;;;;;;;-143.84;37.64;45073.81;5072622;28;20516;-59
2023/12/30 08:51:05;;;;;;;1.00;0.90;;;;;;;-143.84;37.88;45043.34;5071963;28;20495;-60
2023/12/30 08:53:32;;;;;;;1.10;1.00;;;;;;;-143.84;37.85;45049.06;5072152;28;20557;-59
2023/12/30 08:55:59;;;;;;;1.30;1.07;;;;;;;-143.84;37.79;45056.69;5072066;28;20475;-59
2023/12/30 08:58:26;;;;;;;1.97;1.60;;;;;;;-143.84;37.98;45056.69;5072200;28;20444;-60
2023/12/30 09:00:55;;;;;;;1.40;1.00;;;;;;;-143.84;38.39;45035.75;5071863;28;20436;-60
2023/12/30 09:03:22;;;;;;;1.40;0.70;;;;;;;-143.84;38.81;45075.72;5072219;28;20491;-59
2023/12/30 09:05:50;;;;;;;1.00;0.87;;;;;;;-143.84;39.40;45060.50;5072044;28;21306;-59
2023/12/30 09:08:17;;;;;;;1.00;0.77;;;;;;;-143.84;38.74;45062.41;5071969;28;20506;-60
2023/12/30 09:10:44;;;;;;;1.17;1.00;;;;;;;-143.84;39.40;45068.13;5071871;28;20570;-59
2023/12/30 09:13:11;;;;;;;1.30;1.20;;;;;;;-143.84;38.83;45049.06;5072064;28;20543;-60
2023/12/30 09:15:38;;;;;;;1.00;0.83;;;;;;;-143.84;38.95;45066.22;5071916;28;20452;-59
2023/12/30 09:18:07;;;;;;;1.00;0.87;;;;;;;-143.84;39.39;45075.72;5071575;28;20487;-60
2023/12/30 09:20:34;;;;;;;1.10;0.97;;;;;;;-143.84;39.33;45060.50;5071529;28;20456;-59
2023/12/30 09:23:01;;;;;;;1.20;1.10;;;;;;;-143.84;38.96;45079.53;5071686;28;20441;-60
2023/12/30 09:25:29;;;;;;;1.60;1.23;;;;;;;-143.84;38.81;45037.66;5071487;28;20444;-59
2023/12/30 09:27:56;;;;;;;1.03;0.93;;;;;;;-143.84;38.75;45056.69;5071494;28;20505;-59
2023/12/30 09:30:23;;;;;;;1.77;1.67;;;;;;;-143.84;38.47;45039.53;5071569;28;20490;-59
2023/12/30 09:32:50;;;;;;;3.53;1.07;;;;;;;-143.84;38.31;45049.06;5071421;28;20489;-59
2023/12/30 09:35:19;;;;;;;1.20;0.97;;;;;;;-143.84;38.10;45056.69;5071256;28;20444;-59
2023/12/30 09:37:46;;;;;;;2.07;1.07;;;;;;;-143.84;38.04;45045.25;5071163;28;20445;-59
2023/12/30 09:40:13;;;;;;;1.97;1.77;;;;;;;-143.84;38.39;45037.66;5071144;28;20506;-59
2023/12/30 09:42:44;;;;;;;0.90;0.63;;;;;;;-143.84;37.99;45041.44;5071120;28;20440;-59
2023/12/30 09:45:14;;;;;;;1.40;1.30;;;;;;;-143.84;38.16;45026.22;5070966;28;20495;-60
2023/12/30 09:47:42;;;;;;;5.87;2.30;;;;;;;-143.84;37.64;45052.88;5071353;28;20503;-59
2023/12/30 09:50:10;;;;;;;2.20;1.67;;;;;;;-143.84;37.56;45041.44;5070826;28;20518;-59
2023/12/30 09:52:38;;;;;;;1.60;1.20;;;;;;;-143.84;37.95;45018.59;5071227;28;20476;-59
2023/12/30 09:55:06;;;;;;;3.10;1.40;;;;;;;-143.84;37.98;45030.03;5071272;28;20433;-59
2023/12/30 09:57:33;;;;;;;3.53;1.60;;;;;;;-143.84;37.97;45030.03;5070798;28;20468;-59
2023/12/30 10:00:05;;;;;;;2.40;1.13;;;;;;;-143.84;38.53;45045.25;5070810;28;20824;-59
2023/12/30 10:02:33;;;;;;;1.00;0.87;;;;;;;-143.84;38.61;45068.13;5070982;28;20567;-60
2023/12/30 10:05:01;;;;;;;2.37;1.70;;;;;;;-143.84;38.29;45060.50;5070985;28;20433;-59
2023/12/30 10:07:31;;;;;;;2.03;1.63;;;;;;;-143.84;38.32;45062.41;5070559;28;20437;-59
2023/12/30 10:10:00;;;;;;;1.30;1.20;;;;;;;-143.84;38.83;45062.41;5070409;28;20524;-59
2023/12/30 10:12:27;;;;;;;2.07;1.13;;;;;;;-143.84;38.87;45070.00;5069904;28;20480;-59
2023/12/30 10:14:54;;;;;;;1.10;0.83;;;;;;;-143.84;39.35;45039.53;5070095;28;20496;-59
2023/12/30 10:17:21;;;;;;;1.97;1.17;;;;;;;-143.84;38.49;45056.69;5069748;28;20487;-59
2023/12/30 10:19:48;;;;;;;3.53;2.40;;;;;;;-143.84;38.50;45052.88;5069152;28;21035;-59
2023/12/30 10:22:15;;;;;;;1.80;1.40;;;;;;;-143.84;38.92;45047.16;5050016;28;20449;-60
2023/12/30 10:24:43;;;;;;;3.50;1.90;;;;;;;-143.84;39.40;45062.41;5050008;28;20449;-59
2023/12/30 10:27:11;;;;;;;2.20;1.83;;;;;;;-143.84;39.50;45049.06;5051609;28;20458;-58
2023/12/30 10:29:39;;;;;;;1.30;1.20;;;;;;;-143.84;39.27;45090.97;5069331;28;21004;-59
2023/12/30 10:32:08;;;;;;;3.20;1.80;;;;;;;-143.84;39.28;45054.78;5069869;28;20484;-59
2023/12/30 10:34:40;;;;;;;1.63;1.53;;;;;;;-143.84;39.63;45043.34;5069678;28;20453;-59
2023/12/30 10:37:09;;;;;;;4.10;1.53;;;;;;;-143.84;39.51;45079.53;5069796;28;20444;-59
2023/12/30 10:39:39;;;;;;;1.30;1.13;;;;;;;-143.84;40.13;45085.25;5070076;28;20469;-60
2023/12/30 10:42:07;;;;;;;0.90;0.70;;;;;;;-143.84;39.38;45064.31;5069579;28;20432;-59
2023/12/30 10:44:36;;;;;;;1.80;1.70;;;;;;;-143.84;38.87;45056.69;5069517;28;20967;-60
2023/12/30 10:47:05;;;;;;;3.70;2.90;;;;;;;-143.84;39.82;45049.06;5069263;28;20456;-61
2023/12/30 10:49:32;;;;;;;3.23;1.90;;;;;;;-143.84;39.86;45045.25;5070069;28;20514;-60
2023/12/30 10:52:06;;;;;;;3.27;2.97;;;;;;;-143.84;39.97;45071.91;5069504;28;20437;-60
2023/12/30 10:54:39;;;;;;;2.30;2.03;;;;;;;-143.84;40.51;45062.41;5069010;28;20437;-61
2023/12/30 10:57:10;;;;;;;1.87;1.77;;;;;;;-143.84;39.53;45070.00;5067930;28;20441;-62
2023/12/30 10:59:43;;;;;;;2.80;1.63;;;;;;;-143.84;40.12;45100.47;5068674;28;20513;-61
2023/12/30 11:02:11;;;;;;;1.63;1.53;;;;;;;-143.84;41.19;45052.88;5067712;28;20441;-62
2023/12/30 11:04:39;;;;;;;1.47;1.37;;;;;;;-143.84;40.77;45033.84;5068171;28;20444;-62
2023/12/30 11:07:11;;;;;;;2.43;2.23;;;;;;;-143.84;40.72;45066.22;5068270;28;20440;-62
2023/12/30 11:09:38;;;;;;;3.73;1.97;;;;;;;-143.84;40.20;45066.22;5068363;28;20497;-61
2023/12/30 11:12:09;;;;;;;3.17;2.87;;;;;;;-143.84;40.83;45079.53;5067611;28;20437;-62
2023/12/30 11:14:36;;;;;;;2.90;2.40;;;;;;;-143.84;40.29;45041.44;5068651;28;20996;-62
2023/12/30 11:17:06;;;;;;;2.10;2.00;;;;;;;-143.84;41.23;45100.47;5067972;28;20453;-62
2023/12/30 11:19:35;;;;;;;3.00;2.40;;;;;;;-143.84;40.66;45066.22;5068047;28;21086;-62